sensor_id;sensor_type;location;lat;lon;timestamp;P1;durP1;ratioP1;P2;durP2;ratioP2
65691;SDS011;52411;52.716;6.696;2023-09-19T00:00:20;6.32;;;2.38;;
65691;SDS011;52411;52.716;6.696;2023-09-19T00:02:52;5.15;;;1.40;;
65691;SDS011;52411;52.716;6.696;2023-09-19T00:05:19;4.67;;;1.33;;
65691;SDS011;52411;52.716;6.696;2023-09-19T00:07:49;3.53;;;1.50;;
65691;SDS011;52411;52.716;6.696;2023-09-19T00:10:16;4.40;;;1.70;;
65691;SDS011;52411;52.716;6.696;2023-09-19T00:12:45;10.43;;;1.80;;
65691;SDS011;52411;52.716;6.696;2023-09-19T00:15:11;6.70;;;1.77;;
65691;SDS011;52411;52.716;6.696;2023-09-19T00:17:36;7.80;;;2.00;;
65691;SDS011;52411;52.716;6.696;2023-09-19T00:20:02;4.50;;;1.75;;
65691;SDS011;52411;52.716;6.696;2023-09-19T00:22:39;10.43;;;2.42;;
65691;SDS011;52411;52.716;6.696;2023-09-19T00:25:06;7.03;;;1.80;;
65691;SDS011;52411;52.716;6.696;2023-09-19T00:27:32;7.40;;;1.95;;
65691;SDS011;52411;52.716;6.696;2023-09-19T00:30:00;5.80;;;2.03;;
65691;SDS011;52411;52.716;6.696;2023-09-19T00:32:26;7.50;;;2.28;;
65691;SDS011;52411;52.716;6.696;2023-09-19T00:34:57;7.07;;;2.38;;
65691;SDS011;52411;52.716;6.696;2023-09-19T00:37:22;5.90;;;2.28;;
65691;SDS011;52411;52.716;6.696;2023-09-19T00:39:48;7.40;;;2.30;;
65691;SDS011;52411;52.716;6.696;2023-09-19T00:42:18;7.88;;;2.60;;
65691;SDS011;52411;52.716;6.696;2023-09-19T00:44:47;8.77;;;2.42;;
65691;SDS011;52411;52.716;6.696;2023-09-19T00:47:13;6.47;;;2.40;;
65691;SDS011;52411;52.716;6.696;2023-09-19T00:49:45;8.48;;;2.50;;
65691;SDS011;52411;52.716;6.696;2023-09-19T00:52:17;10.60;;;2.28;;
65691;SDS011;52411;52.716;6.696;2023-09-19T00:54:46;8.05;;;2.22;;
65691;SDS011;52411;52.716;6.696;2023-09-19T00:57:12;7.72;;;2.20;;
65691;SDS011;52411;52.716;6.696;2023-09-19T00:59:39;11.27;;;2.65;;
65691;SDS011;52411;52.716;6.696;2023-09-19T01:02:06;8.93;;;2.50;;
65691;SDS011;52411;52.716;6.696;2023-09-19T01:04:31;9.00;;;2.40;;
65691;SDS011;52411;52.716;6.696;2023-09-19T01:06:58;9.85;;;2.63;;
65691;SDS011;52411;52.716;6.696;2023-09-19T01:09:24;10.50;;;2.83;;
65691;SDS011;52411;52.716;6.696;2023-09-19T01:11:50;8.55;;;2.70;;
65691;SDS011;52411;52.716;6.696;2023-09-19T01:22:32;9.43;;;3.08;;
65691;SDS011;52411;52.716;6.696;2023-09-19T01:30:56;12.63;;;3.63;;
65691;SDS011;52411;52.716;6.696;2023-09-19T01:33:24;11.52;;;3.40;;
65691;SDS011;52411;52.716;6.696;2023-09-19T01:35:50;6.65;;;2.60;;
65691;SDS011;52411;52.716;6.696;2023-09-19T01:38:18;11.95;;;3.53;;
65691;SDS011;52411;52.716;6.696;2023-09-19T01:40:55;5.38;;;2.90;;
65691;SDS011;52411;52.716;6.696;2023-09-19T01:43:36;9.68;;;3.42;;
65691;SDS011;52411;52.716;6.696;2023-09-19T01:46:21;9.15;;;3.90;;
65691;SDS011;52411;52.716;6.696;2023-09-19T01:54:36;9.40;;;2.90;;
65691;SDS011;52411;52.716;6.696;2023-09-19T01:57:17;13.55;;;3.33;;
65691;SDS011;52411;52.716;6.696;2023-09-19T02:00:03;13.52;;;3.33;;
65691;SDS011;52411;52.716;6.696;2023-09-19T02:02:35;10.23;;;3.22;;
65691;SDS011;52411;52.716;6.696;2023-09-19T02:05:03;7.78;;;2.70;;
65691;SDS011;52411;52.716;6.696;2023-09-19T02:07:29;13.07;;;3.25;;
65691;SDS011;52411;52.716;6.696;2023-09-19T02:09:57;14.65;;;3.47;;
65691;SDS011;52411;52.716;6.696;2023-09-19T02:12:25;11.73;;;3.08;;
65691;SDS011;52411;52.716;6.696;2023-09-19T02:14:51;12.43;;;3.08;;
65691;SDS011;52411;52.716;6.696;2023-09-19T02:17:16;15.73;;;3.17;;
65691;SDS011;52411;52.716;6.696;2023-09-19T02:19:42;8.32;;;2.78;;
65691;SDS011;52411;52.716;6.696;2023-09-19T02:22:08;8.88;;;3.33;;
65691;SDS011;52411;52.716;6.696;2023-09-19T02:24:35;8.50;;;2.83;;
65691;SDS011;52411;52.716;6.696;2023-09-19T02:27:02;12.23;;;3.00;;
65691;SDS011;52411;52.716;6.696;2023-09-19T02:29:32;12.20;;;3.23;;
65691;SDS011;52411;52.716;6.696;2023-09-19T02:31:59;8.48;;;2.90;;
65691;SDS011;52411;52.716;6.696;2023-09-19T02:34:26;8.50;;;3.05;;
65691;SDS011;52411;52.716;6.696;2023-09-19T02:36:52;9.88;;;2.80;;
65691;SDS011;52411;52.716;6.696;2023-09-19T02:39:19;13.80;;;3.05;;
65691;SDS011;52411;52.716;6.696;2023-09-19T02:41:45;6.35;;;2.63;;
65691;SDS011;52411;52.716;6.696;2023-09-19T02:44:11;8.18;;;2.60;;
65691;SDS011;52411;52.716;6.696;2023-09-19T02:46:37;7.50;;;2.75;;
65691;SDS011;52411;52.716;6.696;2023-09-19T02:49:03;10.63;;;3.22;;
65691;SDS011;52411;52.716;6.696;2023-09-19T02:51:32;8.80;;;2.90;;
65691;SDS011;52411;52.716;6.696;2023-09-19T02:54:01;13.60;;;2.67;;
65691;SDS011;52411;52.716;6.696;2023-09-19T02:56:28;8.15;;;2.83;;
65691;SDS011;52411;52.716;6.696;2023-09-19T02:58:54;7.78;;;2.47;;
65691;SDS011;52411;52.716;6.696;2023-09-19T03:01:21;8.63;;;2.30;;
65691;SDS011;52411;52.716;6.696;2023-09-19T03:03:47;8.32;;;2.55;;
65691;SDS011;52411;52.716;6.696;2023-09-19T03:06:13;10.75;;;2.70;;
65691;SDS011;52411;52.716;6.696;2023-09-19T03:08:40;6.22;;;2.63;;
65691;SDS011;52411;52.716;6.696;2023-09-19T03:11:07;6.32;;;3.13;;
65691;SDS011;52411;52.716;6.696;2023-09-19T03:13:34;9.48;;;3.05;;
65691;SDS011;52411;52.716;6.696;2023-09-19T03:16:02;10.90;;;2.70;;
65691;SDS011;52411;52.716;6.696;2023-09-19T03:18:31;6.80;;;2.40;;
65691;SDS011;52411;52.716;6.696;2023-09-19T03:20:59;7.35;;;2.65;;
65691;SDS011;52411;52.716;6.696;2023-09-19T03:23:27;11.60;;;2.83;;
65691;SDS011;52411;52.716;6.696;2023-09-19T03:25:54;6.30;;;2.70;;
65691;SDS011;52411;52.716;6.696;2023-09-19T03:28:21;6.68;;;2.28;;
65691;SDS011;52411;52.716;6.696;2023-09-19T03:31:03;9.13;;;2.80;;
65691;SDS011;52411;52.716;6.696;2023-09-19T03:33:29;9.85;;;3.10;;
65691;SDS011;52411;52.716;6.696;2023-09-19T03:35:59;10.10;;;3.00;;
65691;SDS011;52411;52.716;6.696;2023-09-19T03:38:26;8.15;;;2.80;;
65691;SDS011;52411;52.716;6.696;2023-09-19T03:40:52;9.07;;;2.63;;
65691;SDS011;52411;52.716;6.696;2023-09-19T03:43:18;7.28;;;2.92;;
65691;SDS011;52411;52.716;6.696;2023-09-19T03:45:44;10.50;;;3.13;;
65691;SDS011;52411;52.716;6.696;2023-09-19T03:48:11;10.25;;;3.05;;
65691;SDS011;52411;52.716;6.696;2023-09-19T03:50:38;12.05;;;3.22;;
65691;SDS011;52411;52.716;6.696;2023-09-19T03:53:04;9.70;;;3.03;;
65691;SDS011;52411;52.716;6.696;2023-09-19T03:55:32;9.80;;;3.10;;
65691;SDS011;52411;52.716;6.696;2023-09-19T03:57:57;10.45;;;3.20;;
65691;SDS011;52411;52.716;6.696;2023-09-19T04:00:23;8.25;;;3.30;;
65691;SDS011;52411;52.716;6.696;2023-09-19T04:02:51;16.05;;;3.83;;
65691;SDS011;52411;52.716;6.696;2023-09-19T04:05:18;9.93;;;3.30;;
65691;SDS011;52411;52.716;6.696;2023-09-19T04:07:44;10.90;;;2.80;;
65691;SDS011;52411;52.716;6.696;2023-09-19T04:10:09;10.75;;;3.10;;
65691;SDS011;52411;52.716;6.696;2023-09-19T04:12:39;8.18;;;3.15;;
65691;SDS011;52411;52.716;6.696;2023-09-19T04:15:05;10.05;;;3.10;;
65691;SDS011;52411;52.716;6.696;2023-09-19T04:17:32;7.47;;;3.00;;
65691;SDS011;52411;52.716;6.696;2023-09-19T04:19:58;9.38;;;3.45;;
65691;SDS011;52411;52.716;6.696;2023-09-19T04:22:25;12.32;;;3.22;;
65691;SDS011;52411;52.716;6.696;2023-09-19T04:24:50;10.27;;;3.03;;
65691;SDS011;52411;52.716;6.696;2023-09-19T04:27:16;11.93;;;3.53;;
65691;SDS011;52411;52.716;6.696;2023-09-19T04:29:43;9.70;;;2.83;;
65691;SDS011;52411;52.716;6.696;2023-09-19T04:32:09;10.57;;;3.03;;
65691;SDS011;52411;52.716;6.696;2023-09-19T04:34:35;7.85;;;2.63;;
65691;SDS011;52411;52.716;6.696;2023-09-19T04:37:01;13.38;;;3.33;;
65691;SDS011;52411;52.716;6.696;2023-09-19T04:39:27;13.30;;;2.80;;
65691;SDS011;52411;52.716;6.696;2023-09-19T04:41:53;13.57;;;3.00;;
65691;SDS011;52411;52.716;6.696;2023-09-19T04:44:19;13.05;;;2.92;;
65691;SDS011;52411;52.716;6.696;2023-09-19T04:46:46;13.95;;;3.00;;
65691;SDS011;52411;52.716;6.696;2023-09-19T04:49:11;9.90;;;2.92;;
65691;SDS011;52411;52.716;6.696;2023-09-19T04:51:37;8.60;;;2.47;;
65691;SDS011;52411;52.716;6.696;2023-09-19T04:54:03;17.88;;;3.35;;
65691;SDS011;52411;52.716;6.696;2023-09-19T04:56:29;11.07;;;3.42;;
65691;SDS011;52411;52.716;6.696;2023-09-19T04:58:55;11.27;;;2.90;;
65691;SDS011;52411;52.716;6.696;2023-09-19T05:01:23;9.90;;;2.78;;
65691;SDS011;52411;52.716;6.696;2023-09-19T05:03:49;8.88;;;2.80;;
65691;SDS011;52411;52.716;6.696;2023-09-19T05:06:18;10.85;;;2.47;;
65691;SDS011;52411;52.716;6.696;2023-09-19T05:08:46;11.93;;;2.67;;
65691;SDS011;52411;52.716;6.696;2023-09-19T05:11:15;15.23;;;2.72;;
65691;SDS011;52411;52.716;6.696;2023-09-19T05:13:40;12.82;;;3.35;;
65691;SDS011;52411;52.716;6.696;2023-09-19T05:16:06;15.50;;;2.92;;
65691;SDS011;52411;52.716;6.696;2023-09-19T05:18:35;13.00;;;2.75;;
65691;SDS011;52411;52.716;6.696;2023-09-19T05:21:01;10.43;;;2.58;;
65691;SDS011;52411;52.716;6.696;2023-09-19T05:23:27;13.15;;;3.10;;
65691;SDS011;52411;52.716;6.696;2023-09-19T05:25:53;12.27;;;2.83;;
65691;SDS011;52411;52.716;6.696;2023-09-19T05:28:19;10.57;;;2.42;;
65691;SDS011;52411;52.716;6.696;2023-09-19T05:30:45;10.88;;;2.60;;
65691;SDS011;52411;52.716;6.696;2023-09-19T05:33:12;8.15;;;2.42;;
65691;SDS011;52411;52.716;6.696;2023-09-19T05:35:38;16.33;;;2.83;;
65691;SDS011;52411;52.716;6.696;2023-09-19T05:38:04;13.68;;;2.67;;
65691;SDS011;52411;52.716;6.696;2023-09-19T05:40:33;11.52;;;2.90;;
65691;SDS011;52411;52.716;6.696;2023-09-19T05:43:00;11.32;;;3.08;;
65691;SDS011;52411;52.716;6.696;2023-09-19T05:45:25;6.80;;;2.28;;
65691;SDS011;52411;52.716;6.696;2023-09-19T05:47:52;8.82;;;3.10;;
65691;SDS011;52411;52.716;6.696;2023-09-19T05:50:26;8.43;;;2.70;;
65691;SDS011;52411;52.716;6.696;2023-09-19T05:52:52;8.45;;;2.25;;
65691;SDS011;52411;52.716;6.696;2023-09-19T05:55:18;11.85;;;2.70;;
65691;SDS011;52411;52.716;6.696;2023-09-19T05:57:48;13.55;;;2.38;;
65691;SDS011;52411;52.716;6.696;2023-09-19T06:00:18;10.85;;;2.60;;
65691;SDS011;52411;52.716;6.696;2023-09-19T06:02:49;11.55;;;2.83;;
65691;SDS011;52411;52.716;6.696;2023-09-19T06:05:22;9.38;;;2.65;;
65691;SDS011;52411;52.716;6.696;2023-09-19T06:07:52;13.02;;;2.67;;
65691;SDS011;52411;52.716;6.696;2023-09-19T06:10:18;12.93;;;2.80;;
65691;SDS011;52411;52.716;6.696;2023-09-19T06:12:45;9.88;;;3.00;;
65691;SDS011;52411;52.716;6.696;2023-09-19T06:15:12;9.32;;;2.83;;
65691;SDS011;52411;52.716;6.696;2023-09-19T06:17:50;8.27;;;2.40;;
65691;SDS011;52411;52.716;6.696;2023-09-19T06:20:17;8.68;;;2.38;;
65691;SDS011;52411;52.716;6.696;2023-09-19T06:22:45;10.80;;;3.00;;
65691;SDS011;52411;52.716;6.696;2023-09-19T06:25:11;14.77;;;2.88;;
65691;SDS011;52411;52.716;6.696;2023-09-19T06:27:44;10.30;;;3.00;;
65691;SDS011;52411;52.716;6.696;2023-09-19T06:30:10;9.30;;;2.80;;
65691;SDS011;52411;52.716;6.696;2023-09-19T06:32:39;8.88;;;2.67;;
65691;SDS011;52411;52.716;6.696;2023-09-19T06:35:09;9.75;;;2.55;;
65691;SDS011;52411;52.716;6.696;2023-09-19T06:37:36;8.93;;;2.53;;
65691;SDS011;52411;52.716;6.696;2023-09-19T06:42:42;11.02;;;2.88;;
65691;SDS011;52411;52.716;6.696;2023-09-19T06:45:12;10.75;;;2.90;;
65691;SDS011;52411;52.716;6.696;2023-09-19T06:47:45;8.25;;;2.42;;
65691;SDS011;52411;52.716;6.696;2023-09-19T06:50:15;9.75;;;2.88;;
65691;SDS011;52411;52.716;6.696;2023-09-19T06:52:43;13.60;;;2.70;;
65691;SDS011;52411;52.716;6.696;2023-09-19T06:55:10;12.88;;;3.25;;
65691;SDS011;52411;52.716;6.696;2023-09-19T06:57:38;7.82;;;2.35;;
65691;SDS011;52411;52.716;6.696;2023-09-19T07:00:05;9.48;;;2.80;;
65691;SDS011;52411;52.716;6.696;2023-09-19T07:02:40;12.15;;;2.85;;
65691;SDS011;52411;52.716;6.696;2023-09-19T07:05:09;11.82;;;2.92;;
65691;SDS011;52411;52.716;6.696;2023-09-19T07:07:35;10.38;;;2.50;;
65691;SDS011;52411;52.716;6.696;2023-09-19T07:10:01;15.15;;;2.90;;
65691;SDS011;52411;52.716;6.696;2023-09-19T07:12:28;9.13;;;3.10;;
65691;SDS011;52411;52.716;6.696;2023-09-19T07:14:53;9.18;;;2.55;;
65691;SDS011;52411;52.716;6.696;2023-09-19T07:17:19;10.43;;;3.00;;
65691;SDS011;52411;52.716;6.696;2023-09-19T07:19:46;10.02;;;2.42;;
65691;SDS011;52411;52.716;6.696;2023-09-19T07:22:13;11.88;;;2.70;;
65691;SDS011;52411;52.716;6.696;2023-09-19T07:24:38;13.65;;;3.08;;
65691;SDS011;52411;52.716;6.696;2023-09-19T07:27:04;7.07;;;2.70;;
65691;SDS011;52411;52.716;6.696;2023-09-19T07:29:30;10.88;;;2.90;;
65691;SDS011;52411;52.716;6.696;2023-09-19T07:31:56;8.48;;;2.53;;
65691;SDS011;52411;52.716;6.696;2023-09-19T07:34:21;10.98;;;2.50;;
65691;SDS011;52411;52.716;6.696;2023-09-19T07:36:48;12.15;;;2.88;;
65691;SDS011;52411;52.716;6.696;2023-09-19T07:39:13;7.63;;;2.58;;
65691;SDS011;52411;52.716;6.696;2023-09-19T07:41:39;11.43;;;2.42;;
65691;SDS011;52411;52.716;6.696;2023-09-19T07:44:04;11.60;;;2.75;;
65691;SDS011;52411;52.716;6.696;2023-09-19T07:46:30;10.50;;;2.67;;
65691;SDS011;52411;52.716;6.696;2023-09-19T07:48:56;12.27;;;2.75;;
65691;SDS011;52411;52.716;6.696;2023-09-19T07:51:22;12.40;;;2.80;;
65691;SDS011;52411;52.716;6.696;2023-09-19T07:53:48;12.77;;;2.65;;
65691;SDS011;52411;52.716;6.696;2023-09-19T07:56:14;10.20;;;2.67;;
65691;SDS011;52411;52.716;6.696;2023-09-19T07:58:40;9.85;;;2.38;;
65691;SDS011;52411;52.716;6.696;2023-09-19T08:01:09;10.52;;;2.60;;
65691;SDS011;52411;52.716;6.696;2023-09-19T08:03:36;10.05;;;2.97;;
65691;SDS011;52411;52.716;6.696;2023-09-19T08:06:09;11.00;;;2.45;;
65691;SDS011;52411;52.716;6.696;2023-09-19T08:08:35;9.77;;;2.42;;
65691;SDS011;52411;52.716;6.696;2023-09-19T08:11:04;12.07;;;2.88;;
65691;SDS011;52411;52.716;6.696;2023-09-19T08:13:37;10.07;;;2.67;;
65691;SDS011;52411;52.716;6.696;2023-09-19T08:16:08;9.80;;;2.20;;
65691;SDS011;52411;52.716;6.696;2023-09-19T08:18:35;14.10;;;2.42;;
65691;SDS011;52411;52.716;6.696;2023-09-19T08:21:01;12.10;;;3.30;;
65691;SDS011;52411;52.716;6.696;2023-09-19T08:23:27;13.90;;;3.00;;
65691;SDS011;52411;52.716;6.696;2023-09-19T08:25:57;11.48;;;2.80;;
65691;SDS011;52411;52.716;6.696;2023-09-19T08:28:23;12.20;;;3.28;;
65691;SDS011;52411;52.716;6.696;2023-09-19T08:30:49;10.77;;;2.53;;
65691;SDS011;52411;52.716;6.696;2023-09-19T08:33:16;10.05;;;2.75;;
65691;SDS011;52411;52.716;6.696;2023-09-19T08:35:42;10.45;;;2.55;;
65691;SDS011;52411;52.716;6.696;2023-09-19T08:38:09;11.80;;;2.88;;
65691;SDS011;52411;52.716;6.696;2023-09-19T08:40:39;12.40;;;3.00;;
65691;SDS011;52411;52.716;6.696;2023-09-19T08:43:06;14.32;;;3.10;;
65691;SDS011;52411;52.716;6.696;2023-09-19T08:45:33;9.57;;;2.50;;
65691;SDS011;52411;52.716;6.696;2023-09-19T08:48:11;10.85;;;3.13;;
65691;SDS011;52411;52.716;6.696;2023-09-19T08:53:27;11.45;;;3.25;;
65691;SDS011;52411;52.716;6.696;2023-09-19T08:56:14;14.23;;;3.13;;
65691;SDS011;52411;52.716;6.696;2023-09-19T08:58:55;10.30;;;2.60;;
65691;SDS011;52411;52.716;6.696;2023-09-19T09:01:27;11.95;;;3.22;;
65691;SDS011;52411;52.716;6.696;2023-09-19T09:03:54;11.05;;;3.28;;
65691;SDS011;52411;52.716;6.696;2023-09-19T09:06:21;8.68;;;2.90;;
65691;SDS011;52411;52.716;6.696;2023-09-19T09:08:48;11.88;;;3.20;;
65691;SDS011;52411;52.716;6.696;2023-09-19T09:11:16;10.57;;;2.92;;
65691;SDS011;52411;52.716;6.696;2023-09-19T09:13:43;13.82;;;3.47;;
65691;SDS011;52411;52.716;6.696;2023-09-19T09:16:13;13.57;;;2.70;;
65691;SDS011;52411;52.716;6.696;2023-09-19T09:18:42;14.85;;;3.20;;
65691;SDS011;52411;52.716;6.696;2023-09-19T09:21:09;11.98;;;3.08;;
65691;SDS011;52411;52.716;6.696;2023-09-19T09:23:35;10.32;;;2.55;;
65691;SDS011;52411;52.716;6.696;2023-09-19T09:26:00;6.80;;;1.98;;
65691;SDS011;52411;52.716;6.696;2023-09-19T09:28:31;10.70;;;2.40;;
65691;SDS011;52411;52.716;6.696;2023-09-19T09:30:58;14.85;;;3.25;;
65691;SDS011;52411;52.716;6.696;2023-09-19T09:33:27;15.23;;;3.00;;
65691;SDS011;52411;52.716;6.696;2023-09-19T09:38:26;11.98;;;2.58;;
65691;SDS011;52411;52.716;6.696;2023-09-19T09:40:53;11.70;;;2.47;;
65691;SDS011;52411;52.716;6.696;2023-09-19T09:43:35;7.93;;;2.70;;
65691;SDS011;52411;52.716;6.696;2023-09-19T09:46:12;10.98;;;2.90;;
65691;SDS011;52411;52.716;6.696;2023-09-19T09:51:37;9.98;;;2.40;;
65691;SDS011;52411;52.716;6.696;2023-09-19T09:54:14;9.23;;;2.80;;
65691;SDS011;52411;52.716;6.696;2023-09-19T09:56:57;11.80;;;3.00;;
65691;SDS011;52411;52.716;6.696;2023-09-19T10:02:15;9.35;;;3.10;;
65691;SDS011;52411;52.716;6.696;2023-09-19T10:04:53;11.43;;;2.97;;
65691;SDS011;52411;52.716;6.696;2023-09-19T10:07:28;10.30;;;3.05;;
65691;SDS011;52411;52.716;6.696;2023-09-19T10:10:04;12.23;;;3.22;;
65691;SDS011;52411;52.716;6.696;2023-09-19T10:12:49;12.50;;;3.13;;
65691;SDS011;52411;52.716;6.696;2023-09-19T10:15:21;11.73;;;3.25;;
65691;SDS011;52411;52.716;6.696;2023-09-19T10:17:51;11.10;;;3.05;;
65691;SDS011;52411;52.716;6.696;2023-09-19T10:20:23;11.20;;;2.97;;
65691;SDS011;52411;52.716;6.696;2023-09-19T10:23:09;15.70;;;3.78;;
65691;SDS011;52411;52.716;6.696;2023-09-19T10:25:38;11.15;;;3.40;;
65691;SDS011;52411;52.716;6.696;2023-09-19T10:28:09;8.77;;;3.03;;
65691;SDS011;52411;52.716;6.696;2023-09-19T10:30:36;11.55;;;3.28;;
65691;SDS011;52411;52.716;6.696;2023-09-19T10:33:07;8.35;;;2.92;;
65691;SDS011;52411;52.716;6.696;2023-09-19T10:35:33;11.32;;;3.08;;
65691;SDS011;52411;52.716;6.696;2023-09-19T10:38:02;12.50;;;3.17;;
65691;SDS011;52411;52.716;6.696;2023-09-19T10:40:29;12.23;;;3.08;;
65691;SDS011;52411;52.716;6.696;2023-09-19T10:43:01;9.05;;;2.58;;
65691;SDS011;52411;52.716;6.696;2023-09-19T10:45:32;10.70;;;3.20;;
65691;SDS011;52411;52.716;6.696;2023-09-19T10:48:02;11.02;;;3.20;;
65691;SDS011;52411;52.716;6.696;2023-09-19T10:50:42;9.35;;;2.47;;
65691;SDS011;52411;52.716;6.696;2023-09-19T10:53:10;9.55;;;2.80;;
65691;SDS011;52411;52.716;6.696;2023-09-19T10:55:37;8.32;;;2.80;;
65691;SDS011;52411;52.716;6.696;2023-09-19T10:58:03;10.98;;;2.90;;
65691;SDS011;52411;52.716;6.696;2023-09-19T11:00:55;8.82;;;3.08;;
65691;SDS011;52411;52.716;6.696;2023-09-19T11:03:22;9.57;;;2.50;;
65691;SDS011;52411;52.716;6.696;2023-09-19T11:06:06;9.68;;;2.78;;
65691;SDS011;52411;52.716;6.696;2023-09-19T11:25:59;10.02;;;2.75;;
65691;SDS011;52411;52.716;6.696;2023-09-19T11:30:38;8.43;;;2.55;;
65691;SDS011;52411;52.716;6.696;2023-09-19T11:36:14;7.53;;;2.53;;
65691;SDS011;52411;52.716;6.696;2023-09-19T11:43:51;7.57;;;2.45;;
65691;SDS011;52411;52.716;6.696;2023-09-19T11:46:26;7.47;;;2.40;;
65691;SDS011;52411;52.716;6.696;2023-09-19T11:48:53;7.63;;;2.38;;
65691;SDS011;52411;52.716;6.696;2023-09-19T11:51:23;9.85;;;2.35;;
65691;SDS011;52411;52.716;6.696;2023-09-19T11:53:52;8.95;;;2.38;;
65691;SDS011;52411;52.716;6.696;2023-09-19T11:56:20;8.80;;;2.40;;
65691;SDS011;52411;52.716;6.696;2023-09-19T11:58:51;8.23;;;2.65;;
65691;SDS011;52411;52.716;6.696;2023-09-19T12:01:24;9.98;;;2.40;;
65691;SDS011;52411;52.716;6.696;2023-09-19T12:03:53;8.43;;;2.72;;
65691;SDS011;52411;52.716;6.696;2023-09-19T12:06:22;8.95;;;2.60;;
65691;SDS011;52411;52.716;6.696;2023-09-19T12:08:49;9.02;;;2.33;;
65691;SDS011;52411;52.716;6.696;2023-09-19T12:11:16;10.18;;;2.50;;
65691;SDS011;52411;52.716;6.696;2023-09-19T12:13:43;6.43;;;2.33;;
65691;SDS011;52411;52.716;6.696;2023-09-19T12:16:14;10.77;;;2.63;;
65691;SDS011;52411;52.716;6.696;2023-09-19T12:18:47;8.45;;;2.47;;
65691;SDS011;52411;52.716;6.696;2023-09-19T12:21:24;7.25;;;2.35;;
65691;SDS011;52411;52.716;6.696;2023-09-19T12:26:25;12.40;;;2.60;;
65691;SDS011;52411;52.716;6.696;2023-09-19T12:28:54;10.10;;;2.63;;
65691;SDS011;52411;52.716;6.696;2023-09-19T12:31:20;8.57;;;2.45;;
65691;SDS011;52411;52.716;6.696;2023-09-19T12:33:45;9.02;;;2.65;;
65691;SDS011;52411;52.716;6.696;2023-09-19T12:36:21;10.63;;;2.42;;
65691;SDS011;52411;52.716;6.696;2023-09-19T12:38:50;8.77;;;2.35;;
65691;SDS011;52411;52.716;6.696;2023-09-19T12:41:18;7.45;;;2.08;;
65691;SDS011;52411;52.716;6.696;2023-09-19T12:43:45;8.88;;;2.47;;
65691;SDS011;52411;52.716;6.696;2023-09-19T12:46:11;10.00;;;3.17;;
65691;SDS011;52411;52.716;6.696;2023-09-19T12:48:37;8.07;;;2.20;;
65691;SDS011;52411;52.716;6.696;2023-09-19T12:51:09;9.18;;;2.50;;
65691;SDS011;52411;52.716;6.696;2023-09-19T12:53:38;7.68;;;2.58;;
65691;SDS011;52411;52.716;6.696;2023-09-19T12:56:16;6.53;;;2.60;;
65691;SDS011;52411;52.716;6.696;2023-09-19T12:58:49;11.02;;;2.95;;
65691;SDS011;52411;52.716;6.696;2023-09-19T13:01:25;7.28;;;2.20;;
65691;SDS011;52411;52.716;6.696;2023-09-19T13:06:47;7.07;;;2.60;;
65691;SDS011;52411;52.716;6.696;2023-09-19T13:09:14;9.17;;;2.53;;
65691;SDS011;52411;52.716;6.696;2023-09-19T13:11:41;8.70;;;2.45;;
65691;SDS011;52411;52.716;6.696;2023-09-19T13:14:13;7.85;;;2.80;;
65691;SDS011;52411;52.716;6.696;2023-09-19T13:19:35;9.52;;;2.38;;
65691;SDS011;52411;52.716;6.696;2023-09-19T13:22:00;6.93;;;2.03;;
65691;SDS011;52411;52.716;6.696;2023-09-19T13:24:26;8.48;;;2.47;;
65691;SDS011;52411;52.716;6.696;2023-09-19T13:26:52;8.73;;;2.40;;
65691;SDS011;52411;52.716;6.696;2023-09-19T13:29:18;7.55;;;2.45;;
65691;SDS011;52411;52.716;6.696;2023-09-19T13:31:48;6.32;;;2.00;;
65691;SDS011;52411;52.716;6.696;2023-09-19T13:34:14;6.43;;;2.50;;
65691;SDS011;52411;52.716;6.696;2023-09-19T13:36:43;7.15;;;2.40;;
65691;SDS011;52411;52.716;6.696;2023-09-19T13:39:09;5.18;;;1.85;;
65691;SDS011;52411;52.716;6.696;2023-09-19T13:41:35;6.50;;;2.30;;
65691;SDS011;52411;52.716;6.696;2023-09-19T13:44:04;6.50;;;2.25;;
65691;SDS011;52411;52.716;6.696;2023-09-19T13:46:30;8.77;;;2.10;;
65691;SDS011;52411;52.716;6.696;2023-09-19T13:49:00;4.07;;;1.80;;
65691;SDS011;52411;52.716;6.696;2023-09-19T13:51:28;7.00;;;2.13;;
65691;SDS011;52411;52.716;6.696;2023-09-19T13:53:56;5.95;;;2.22;;
65691;SDS011;52411;52.716;6.696;2023-09-19T13:56:22;5.55;;;2.33;;
65691;SDS011;52411;52.716;6.696;2023-09-19T13:58:47;8.18;;;2.25;;
65691;SDS011;52411;52.716;6.696;2023-09-19T14:01:13;6.25;;;1.95;;
65691;SDS011;52411;52.716;6.696;2023-09-19T14:03:39;6.68;;;2.55;;
65691;SDS011;52411;52.716;6.696;2023-09-19T14:06:05;7.65;;;2.30;;
65691;SDS011;52411;52.716;6.696;2023-09-19T14:08:31;7.03;;;2.42;;
65691;SDS011;52411;52.716;6.696;2023-09-19T14:10:59;4.38;;;2.15;;
65691;SDS011;52411;52.716;6.696;2023-09-19T14:13:32;8.82;;;2.40;;
65691;SDS011;52411;52.716;6.696;2023-09-19T14:16:02;5.53;;;1.73;;
65691;SDS011;52411;52.716;6.696;2023-09-19T14:18:31;8.80;;;2.00;;
65691;SDS011;52411;52.716;6.696;2023-09-19T14:20:57;4.07;;;1.75;;
65691;SDS011;52411;52.716;6.696;2023-09-19T14:23:23;7.88;;;1.85;;
65691;SDS011;52411;52.716;6.696;2023-09-19T14:25:50;9.18;;;2.10;;
65691;SDS011;52411;52.716;6.696;2023-09-19T14:28:17;5.15;;;1.73;;
65691;SDS011;52411;52.716;6.696;2023-09-19T14:30:43;10.70;;;1.67;;
65691;SDS011;52411;52.716;6.696;2023-09-19T14:33:09;8.50;;;1.90;;
65691;SDS011;52411;52.716;6.696;2023-09-19T14:35:36;5.13;;;1.73;;
65691;SDS011;52411;52.716;6.696;2023-09-19T14:38:03;4.65;;;1.80;;
65691;SDS011;52411;52.716;6.696;2023-09-19T14:40:29;3.90;;;1.50;;
65691;SDS011;52411;52.716;6.696;2023-09-19T14:42:54;7.32;;;2.22;;
65691;SDS011;52411;52.716;6.696;2023-09-19T14:45:20;10.18;;;1.77;;
65691;SDS011;52411;52.716;6.696;2023-09-19T14:47:46;4.75;;;1.65;;
65691;SDS011;52411;52.716;6.696;2023-09-19T14:50:12;5.57;;;1.45;;
65691;SDS011;52411;52.716;6.696;2023-09-19T14:52:38;6.82;;;2.20;;
65691;SDS011;52411;52.716;6.696;2023-09-19T14:55:05;7.88;;;1.85;;
65691;SDS011;52411;52.716;6.696;2023-09-19T14:57:31;7.47;;;2.00;;
65691;SDS011;52411;52.716;6.696;2023-09-19T14:59:57;3.25;;;1.85;;
65691;SDS011;52411;52.716;6.696;2023-09-19T15:02:23;5.15;;;1.80;;
65691;SDS011;52411;52.716;6.696;2023-09-19T15:04:49;4.93;;;1.52;;
65691;SDS011;52411;52.716;6.696;2023-09-19T15:07:16;4.93;;;1.70;;
65691;SDS011;52411;52.716;6.696;2023-09-19T15:09:42;5.18;;;1.92;;
65691;SDS011;52411;52.716;6.696;2023-09-19T15:12:08;5.28;;;2.20;;
65691;SDS011;52411;52.716;6.696;2023-09-19T15:14:36;6.20;;;1.70;;
65691;SDS011;52411;52.716;6.696;2023-09-19T15:17:02;12.45;;;2.50;;
65691;SDS011;52411;52.716;6.696;2023-09-19T15:19:29;4.07;;;1.80;;
65691;SDS011;52411;52.716;6.696;2023-09-19T15:21:55;4.85;;;2.08;;
65691;SDS011;52411;52.716;6.696;2023-09-19T15:24:22;7.43;;;1.70;;
65691;SDS011;52411;52.716;6.696;2023-09-19T15:26:47;6.40;;;1.73;;
65691;SDS011;52411;52.716;6.696;2023-09-19T15:29:13;4.15;;;1.52;;
65691;SDS011;52411;52.716;6.696;2023-09-19T15:31:39;6.20;;;1.80;;
65691;SDS011;52411;52.716;6.696;2023-09-19T15:34:05;7.28;;;1.80;;
65691;SDS011;52411;52.716;6.696;2023-09-19T15:36:32;3.85;;;1.50;;
65691;SDS011;52411;52.716;6.696;2023-09-19T15:39:02;8.20;;;1.83;;
65691;SDS011;52411;52.716;6.696;2023-09-19T15:41:40;4.72;;;1.80;;
65691;SDS011;52411;52.716;6.696;2023-09-19T15:44:16;5.75;;;1.70;;
65691;SDS011;52411;52.716;6.696;2023-09-19T15:46:43;6.18;;;1.80;;
65691;SDS011;52411;52.716;6.696;2023-09-19T15:49:10;4.18;;;1.65;;
65691;SDS011;52411;52.716;6.696;2023-09-19T15:51:35;4.20;;;2.00;;
65691;SDS011;52411;52.716;6.696;2023-09-19T15:54:01;3.83;;;1.50;;
65691;SDS011;52411;52.716;6.696;2023-09-19T15:56:33;5.78;;;1.65;;
65691;SDS011;52411;52.716;6.696;2023-09-19T15:59:02;5.88;;;1.63;;